sensor_id;sensor_type;location;lat;lon;timestamp;pressure;altitude;pressure_sealevel;temperature;humidity
56070;BME280;41944;52.078;-0.058;2023-04-25T00:00:14;101292.23;;;5.02;79.70
56070;BME280;41944;52.078;-0.058;2023-04-25T00:02:42;101291.79;;;4.93;80.08
56070;BME280;41944;52.078;-0.058;2023-04-25T00:05:09;101295.74;;;4.76;80.79
56070;BME280;41944;52.078;-0.058;2023-04-25T00:07:36;101297.27;;;4.59;81.47
56070;BME280;41944;52.078;-0.058;2023-04-25T00:10:03;101299.11;;;4.87;80.99
56070;BME280;41944;52.078;-0.058;2023-04-25T00:12:31;101298.89;;;4.64;82.06
56070;BME280;41944;52.078;-0.058;2023-04-25T00:14:57;101301.19;;;4.46;83.30
56070;BME280;41944;52.078;-0.058;2023-04-25T00:17:24;101298.78;;;4.59;82.14
56070;BME280;41944;52.078;-0.058;2023-04-25T00:19:51;101302.18;;;4.46;83.42
56070;BME280;41944;52.078;-0.058;2023-04-25T00:22:18;101299.83;;;4.45;83.71
56070;BME280;41944;52.078;-0.058;2023-04-25T00:24:45;101300.20;;;4.47;83.19
56070;BME280;41944;52.078;-0.058;2023-04-25T00:27:12;101301.05;;;4.72;83.50
56070;BME280;41944;52.078;-0.058;2023-04-25T00:29:39;101302.11;;;4.67;82.61
56070;BME280;41944;52.078;-0.058;2023-04-25T00:32:06;101307.19;;;4.58;82.38
56070;BME280;41944;52.078;-0.058;2023-04-25T00:34:33;101311.52;;;4.64;82.13
56070;BME280;41944;52.078;-0.058;2023-04-25T00:37:01;101312.55;;;4.58;82.07
56070;BME280;41944;52.078;-0.058;2023-04-25T00:39:28;101318.44;;;4.55;82.26
56070;BME280;41944;52.078;-0.058;2023-04-25T00:41:54;101315.69;;;4.35;82.80
56070;BME280;41944;52.078;-0.058;2023-04-25T00:44:22;101311.56;;;4.36;83.41
56070;BME280;41944;52.078;-0.058;2023-04-25T00:46:50;101313.16;;;4.35;82.59
56070;BME280;41944;52.078;-0.058;2023-04-25T00:49:17;101320.43;;;4.52;81.94
56070;BME280;41944;52.078;-0.058;2023-04-25T00:51:44;101317.98;;;4.41;82.20
56070;BME280;41944;52.078;-0.058;2023-04-25T00:54:12;101320.14;;;4.40;82.72
56070;BME280;41944;52.078;-0.058;2023-04-25T00:56:39;101323.72;;;4.45;82.45
56070;BME280;41944;52.078;-0.058;2023-04-25T00:59:08;101322.26;;;4.35;83.05
56070;BME280;41944;52.078;-0.058;2023-04-25T01:01:36;101319.28;;;4.51;81.83
56070;BME280;41944;52.078;-0.058;2023-04-25T01:04:03;101315.15;;;4.44;81.52
56070;BME280;41944;52.078;-0.058;2023-04-25T01:06:29;101312.45;;;4.02;83.03
56070;BME280;41944;52.078;-0.058;2023-04-25T01:08:56;101313.43;;;4.32;83.17
56070;BME280;41944;52.078;-0.058;2023-04-25T01:11:24;101310.78;;;4.05;83.88
56070;BME280;41944;52.078;-0.058;2023-04-25T01:13:51;101311.42;;;4.01;84.59
56070;BME280;41944;52.078;-0.058;2023-04-25T01:16:18;101313.34;;;3.88;84.72
56070;BME280;41944;52.078;-0.058;2023-04-25T01:18:46;101315.89;;;3.92;84.87
56070;BME280;41944;52.078;-0.058;2023-04-25T01:21:13;101314.88;;;3.91;84.95
56070;BME280;41944;52.078;-0.058;2023-04-25T01:23:41;101312.26;;;3.83;85.23
56070;BME280;41944;52.078;-0.058;2023-04-25T01:26:09;101314.93;;;3.95;84.75
56070;BME280;41944;52.078;-0.058;2023-04-25T01:28:36;101320.01;;;4.12;83.82
56070;BME280;41944;52.078;-0.058;2023-04-25T01:31:04;101321.33;;;4.24;83.48
56070;BME280;41944;52.078;-0.058;2023-04-25T01:33:31;101321.63;;;4.05;83.57
56070;BME280;41944;52.078;-0.058;2023-04-25T01:35:59;101323.36;;;4.33;82.22
56070;BME280;41944;52.078;-0.058;2023-04-25T01:38:26;101325.89;;;4.45;80.99
56070;BME280;41944;52.078;-0.058;2023-04-25T01:40:54;101324.27;;;4.34;81.67
56070;BME280;41944;52.078;-0.058;2023-04-25T01:43:21;101328.43;;;4.30;82.24
56070;BME280;41944;52.078;-0.058;2023-04-25T01:45:49;101329.95;;;4.06;83.07
56070;BME280;41944;52.078;-0.058;2023-04-25T01:48:16;101328.94;;;3.89;83.95
56070;BME280;41944;52.078;-0.058;2023-04-25T01:50:44;101332.19;;;3.91;84.41
56070;BME280;41944;52.078;-0.058;2023-04-25T01:53:13;101334.31;;;4.25;82.97
56070;BME280;41944;52.078;-0.058;2023-04-25T01:55:40;101335.76;;;4.10;82.72
56070;BME280;41944;52.078;-0.058;2023-04-25T01:58:07;101337.17;;;3.92;82.92
56070;BME280;41944;52.078;-0.058;2023-04-25T02:00:35;101335.28;;;3.89;84.03
56070;BME280;41944;52.078;-0.058;2023-04-25T02:03:02;101335.75;;;3.81;84.14
56070;BME280;41944;52.078;-0.058;2023-04-25T02:05:34;101336.52;;;4.05;83.56
56070;BME280;41944;52.078;-0.058;2023-04-25T02:08:02;101337.28;;;4.04;83.15
56070;BME280;41944;52.078;-0.058;2023-04-25T02:10:28;101342.32;;;4.02;82.74
56070;BME280;41944;52.078;-0.058;2023-04-25T02:12:57;101344.44;;;4.01;82.94
56070;BME280;41944;52.078;-0.058;2023-04-25T02:15:24;101343.85;;;3.94;83.00
56070;BME280;41944;52.078;-0.058;2023-04-25T02:17:51;101346.67;;;3.66;83.03
56070;BME280;41944;52.078;-0.058;2023-04-25T02:20:18;101347.40;;;3.39;84.97
56070;BME280;41944;52.078;-0.058;2023-04-25T02:22:45;101353.49;;;3.34;85.86
56070;BME280;41944;52.078;-0.058;2023-04-25T02:25:12;101361.17;;;3.18;86.08
56070;BME280;41944;52.078;-0.058;2023-04-25T02:27:39;101353.13;;;3.27;85.87
56070;BME280;41944;52.078;-0.058;2023-04-25T02:30:07;101355.60;;;3.19;86.66
56070;BME280;41944;52.078;-0.058;2023-04-25T02:32:35;101347.29;;;3.47;85.60
56070;BME280;41944;52.078;-0.058;2023-04-25T02:35:02;101346.43;;;3.35;85.29
56070;BME280;41944;52.078;-0.058;2023-04-25T02:37:29;101349.77;;;3.31;85.74
56070;BME280;41944;52.078;-0.058;2023-04-25T02:39:56;101357.81;;;3.08;86.93
56070;BME280;41944;52.078;-0.058;2023-04-25T02:42:23;101360.28;;;3.24;86.20
56070;BME280;41944;52.078;-0.058;2023-04-25T02:44:50;101358.06;;;3.37;85.91
56070;BME280;41944;52.078;-0.058;2023-04-25T02:47:17;101361.93;;;3.33;85.56
56070;BME280;41944;52.078;-0.058;2023-04-25T02:49:44;101355.01;;;3.45;84.89
56070;BME280;41944;52.078;-0.058;2023-04-25T02:52:12;101356.12;;;3.44;85.47
56070;BME280;41944;52.078;-0.058;2023-04-25T02:54:39;101356.61;;;3.27;85.54
56070;BME280;41944;52.078;-0.058;2023-04-25T02:57:07;101362.94;;;3.17;85.83
56070;BME280;41944;52.078;-0.058;2023-04-25T02:59:34;101357.25;;;3.24;85.69
56070;BME280;41944;52.078;-0.058;2023-04-25T03:02:02;101357.86;;;3.14;86.64
56070;BME280;41944;52.078;-0.058;2023-04-25T03:04:28;101357.55;;;3.03;86.66
56070;BME280;41944;52.078;-0.058;2023-04-25T03:06:55;101360.24;;;3.00;87.11
56070;BME280;41944;52.078;-0.058;2023-04-25T03:09:22;101362.16;;;2.92;87.54
56070;BME280;41944;52.078;-0.058;2023-04-25T03:11:49;101370.36;;;2.90;87.75
56070;BME280;41944;52.078;-0.058;2023-04-25T03:14:17;101371.49;;;2.76;88.10
56070;BME280;41944;52.078;-0.058;2023-04-25T03:16:43;101374.61;;;2.69;88.35
56070;BME280;41944;52.078;-0.058;2023-04-25T03:19:10;101374.57;;;2.60;89.19
56070;BME280;41944;52.078;-0.058;2023-04-25T03:21:38;101378.29;;;2.61;88.96
56070;BME280;41944;52.078;-0.058;2023-04-25T03:24:06;101377.34;;;2.60;88.70
56070;BME280;41944;52.078;-0.058;2023-04-25T03:26:32;101374.17;;;2.50;89.02
56070;BME280;41944;52.078;-0.058;2023-04-25T03:28:59;101378.60;;;2.55;89.44
56070;BME280;41944;52.078;-0.058;2023-04-25T03:31:26;101380.47;;;2.54;89.00
56070;BME280;41944;52.078;-0.058;2023-04-25T03:33:53;101381.27;;;2.54;88.86
56070;BME280;41944;52.078;-0.058;2023-04-25T03:36:20;101383.59;;;2.51;89.13
56070;BME280;41944;52.078;-0.058;2023-04-25T03:38:47;101389.37;;;2.56;88.56
56070;BME280;41944;52.078;-0.058;2023-04-25T03:41:14;101387.70;;;2.60;88.87
56070;BME280;41944;52.078;-0.058;2023-04-25T03:43:41;101385.86;;;2.87;88.66
56070;BME280;41944;52.078;-0.058;2023-04-25T03:46:08;101383.39;;;2.80;87.94
56070;BME280;41944;52.078;-0.058;2023-04-25T03:48:35;101382.46;;;2.72;88.31
56070;BME280;41944;52.078;-0.058;2023-04-25T03:51:02;101386.19;;;2.81;87.51
56070;BME280;41944;52.078;-0.058;2023-04-25T03:53:29;101386.89;;;2.66;88.35
56070;BME280;41944;52.078;-0.058;2023-04-25T03:55:56;101388.23;;;2.67;88.38
56070;BME280;41944;52.078;-0.058;2023-04-25T03:58:23;101388.16;;;2.99;87.45
56070;BME280;41944;52.078;-0.058;2023-04-25T04:00:50;101395.17;;;2.57;88.10
56070;BME280;41944;52.078;-0.058;2023-04-25T04:03:16;101398.41;;;2.68;88.00
56070;BME280;41944;52.078;-0.058;2023-04-25T04:05:43;101399.70;;;2.40;88.63
56070;BME280;41944;52.078;-0.058;2023-04-25T04:08:10;101405.17;;;2.34;89.38
56070;BME280;41944;52.078;-0.058;2023-04-25T04:10:38;101408.18;;;2.19;89.81
56070;BME280;41944;52.078;-0.058;2023-04-25T04:13:04;101417.28;;;2.15;89.68
56070;BME280;41944;52.078;-0.058;2023-04-25T04:15:31;101419.98;;;2.20;89.57
56070;BME280;41944;52.078;-0.058;2023-04-25T04:17:58;101416.82;;;2.41;89.09
56070;BME280;41944;52.078;-0.058;2023-04-25T04:20:25;101413.54;;;2.20;89.20
56070;BME280;41944;52.078;-0.058;2023-04-25T04:22:52;101408.86;;;2.18;89.59
56070;BME280;41944;52.078;-0.058;2023-04-25T04:25:19;101407.83;;;2.27;89.60
56070;BME280;41944;52.078;-0.058;2023-04-25T04:27:46;101410.10;;;2.36;89.08
56070;BME280;41944;52.078;-0.058;2023-04-25T04:30:13;101415.44;;;2.38;88.54
56070;BME280;41944;52.078;-0.058;2023-04-25T04:32:40;101414.52;;;2.29;89.16
56070;BME280;41944;52.078;-0.058;2023-04-25T04:35:08;101418.11;;;2.33;88.82
56070;BME280;41944;52.078;-0.058;2023-04-25T04:37:35;101423.34;;;2.27;89.14
56070;BME280;41944;52.078;-0.058;2023-04-25T04:40:03;101432.67;;;2.16;89.81
56070;BME280;41944;52.078;-0.058;2023-04-25T04:42:30;101440.50;;;2.03;90.30
56070;BME280;41944;52.078;-0.058;2023-04-25T04:44:57;101445.63;;;1.92;91.08
56070;BME280;41944;52.078;-0.058;2023-04-25T04:47:24;101444.48;;;1.95;90.82
56070;BME280;41944;52.078;-0.058;2023-04-25T04:49:51;101443.86;;;1.93;91.27
56070;BME280;41944;52.078;-0.058;2023-04-25T04:52:18;101447.08;;;2.05;90.86
56070;BME280;41944;52.078;-0.058;2023-04-25T04:54:45;101450.71;;;2.05;90.69
56070;BME280;41944;52.078;-0.058;2023-04-25T04:57:12;101454.87;;;2.10;90.85
56070;BME280;41944;52.078;-0.058;2023-04-25T04:59:39;101464.40;;;2.09;90.66
56070;BME280;41944;52.078;-0.058;2023-04-25T05:02:06;101470.59;;;2.03;90.74
56070;BME280;41944;52.078;-0.058;2023-04-25T05:04:33;101465.88;;;2.00;91.13
56070;BME280;41944;52.078;-0.058;2023-04-25T05:07:00;101462.30;;;2.18;90.95
56070;BME280;41944;52.078;-0.058;2023-04-25T05:09:27;101465.34;;;2.18;90.77
56070;BME280;41944;52.078;-0.058;2023-04-25T05:11:54;101465.82;;;2.18;90.85
56070;BME280;41944;52.078;-0.058;2023-04-25T05:14:21;101471.65;;;2.24;90.73
56070;BME280;41944;52.078;-0.058;2023-04-25T05:16:48;101476.35;;;2.42;90.61
56070;BME280;41944;52.078;-0.058;2023-04-25T05:19:15;101480.61;;;2.43;90.23
56070;BME280;41944;52.078;-0.058;2023-04-25T05:21:42;101487.28;;;2.34;90.62
56070;BME280;41944;52.078;-0.058;2023-04-25T05:24:09;101487.58;;;2.35;90.23
56070;BME280;41944;52.078;-0.058;2023-04-25T05:26:36;101487.12;;;2.29;91.40
56070;BME280;41944;52.078;-0.058;2023-04-25T05:29:04;101482.78;;;2.52;90.33
56070;BME280;41944;52.078;-0.058;2023-04-25T05:31:31;101474.08;;;2.69;89.41
56070;BME280;41944;52.078;-0.058;2023-04-25T05:33:58;101476.72;;;2.63;88.98
56070;BME280;41944;52.078;-0.058;2023-04-25T05:36:25;101480.13;;;2.79;89.49
56070;BME280;41944;52.078;-0.058;2023-04-25T05:38:52;101480.04;;;2.82;89.05
56070;BME280;41944;52.078;-0.058;2023-04-25T05:41:19;101483.35;;;3.00;88.88
56070;BME280;41944;52.078;-0.058;2023-04-25T05:43:46;101497.72;;;3.12;88.06
56070;BME280;41944;52.078;-0.058;2023-04-25T05:46:13;101506.70;;;3.01;88.30
56070;BME280;41944;52.078;-0.058;2023-04-25T05:48:40;101506.34;;;3.04;87.99
56070;BME280;41944;52.078;-0.058;2023-04-25T05:51:07;101506.34;;;2.91;88.69
56070;BME280;41944;52.078;-0.058;2023-04-25T05:53:35;101518.71;;;3.09;88.45
56070;BME280;41944;52.078;-0.058;2023-04-25T05:56:02;101525.85;;;3.32;87.50
56070;BME280;41944;52.078;-0.058;2023-04-25T05:58:29;101531.82;;;3.55;86.39
56070;BME280;41944;52.078;-0.058;2023-04-25T06:00:56;101534.28;;;3.74;85.24
56070;BME280;41944;52.078;-0.058;2023-04-25T06:03:23;101536.12;;;3.80;84.59
56070;BME280;41944;52.078;-0.058;2023-04-25T06:05:50;101531.93;;;3.84;84.75
56070;BME280;41944;52.078;-0.058;2023-04-25T06:08:17;101526.90;;;3.96;84.68
56070;BME280;41944;52.078;-0.058;2023-04-25T06:10:44;101523.30;;;4.01;84.20
56070;BME280;41944;52.078;-0.058;2023-04-25T06:13:11;101523.06;;;3.97;84.52
56070;BME280;41944;52.078;-0.058;2023-04-25T06:15:40;101527.78;;;3.96;84.16
56070;BME280;41944;52.078;-0.058;2023-04-25T06:18:07;101527.91;;;3.97;84.59
56070;BME280;41944;52.078;-0.058;2023-04-25T06:20:34;101527.18;;;4.15;83.63
56070;BME280;41944;52.078;-0.058;2023-04-25T06:23:01;101529.27;;;4.16;83.52
56070;BME280;41944;52.078;-0.058;2023-04-25T06:25:28;101530.69;;;4.63;82.16
56070;BME280;41944;52.078;-0.058;2023-04-25T06:27:55;101532.49;;;4.61;81.99
56070;BME280;41944;52.078;-0.058;2023-04-25T06:30:22;101533.58;;;4.95;79.78
56070;BME280;41944;52.078;-0.058;2023-04-25T06:32:50;101539.02;;;4.90;80.10
56070;BME280;41944;52.078;-0.058;2023-04-25T06:35:17;101536.86;;;4.84;81.18
56070;BME280;41944;52.078;-0.058;2023-04-25T06:37:44;101539.32;;;5.21;80.22
56070;BME280;41944;52.078;-0.058;2023-04-25T06:40:11;101537.60;;;5.28;79.57
56070;BME280;41944;52.078;-0.058;2023-04-25T06:42:39;101542.12;;;5.36;79.22
56070;BME280;41944;52.078;-0.058;2023-04-25T06:45:07;101540.92;;;5.46;78.20
56070;BME280;41944;52.078;-0.058;2023-04-25T06:47:34;101546.61;;;5.73;78.84
56070;BME280;41944;52.078;-0.058;2023-04-25T06:50:01;101547.24;;;5.92;78.07
56070;BME280;41944;52.078;-0.058;2023-04-25T06:52:27;101551.54;;;5.92;76.41
56070;BME280;41944;52.078;-0.058;2023-04-25T06:54:54;101550.10;;;6.02;76.86
56070;BME280;41944;52.078;-0.058;2023-04-25T06:57:21;101556.41;;;6.20;75.69
56070;BME280;41944;52.078;-0.058;2023-04-25T06:59:48;101551.27;;;6.42;73.66
56070;BME280;41944;52.078;-0.058;2023-04-25T07:02:15;101546.58;;;6.50;73.08
56070;BME280;41944;52.078;-0.058;2023-04-25T07:04:42;101548.39;;;6.52;74.40
56070;BME280;41944;52.078;-0.058;2023-04-25T07:07:09;101548.32;;;6.66;74.21
56070;BME280;41944;52.078;-0.058;2023-04-25T07:09:36;101543.17;;;6.59;73.11
56070;BME280;41944;52.078;-0.058;2023-04-25T07:12:03;101546.28;;;6.57;74.11
56070;BME280;41944;52.078;-0.058;2023-04-25T07:14:31;101553.08;;;6.64;74.02
56070;BME280;41944;52.078;-0.058;2023-04-25T07:16:58;101566.27;;;6.93;72.69
56070;BME280;41944;52.078;-0.058;2023-04-25T07:19:25;101578.35;;;6.90;73.86
56070;BME280;41944;52.078;-0.058;2023-04-25T07:21:51;101572.42;;;7.16;72.31
56070;BME280;41944;52.078;-0.058;2023-04-25T07:24:18;101565.42;;;7.21;70.97
56070;BME280;41944;52.078;-0.058;2023-04-25T07:26:45;101573.74;;;7.24;70.81
56070;BME280;41944;52.078;-0.058;2023-04-25T07:29:13;101575.70;;;7.24;70.65
56070;BME280;41944;52.078;-0.058;2023-04-25T07:31:40;101574.69;;;7.20;71.40
56070;BME280;41944;52.078;-0.058;2023-04-25T07:34:07;101576.94;;;7.22;71.66
56070;BME280;41944;52.078;-0.058;2023-04-25T07:36:34;101579.68;;;7.39;71.90
56070;BME280;41944;52.078;-0.058;2023-04-25T07:39:01;101585.54;;;7.41;71.02
56070;BME280;41944;52.078;-0.058;2023-04-25T07:41:28;101587.73;;;7.41;70.65
56070;BME280;41944;52.078;-0.058;2023-04-25T07:43:55;101590.39;;;7.60;69.47
56070;BME280;41944;52.078;-0.058;2023-04-25T07:46:22;101595.39;;;7.63;69.01
56070;BME280;41944;52.078;-0.058;2023-04-25T07:48:48;101592.54;;;7.47;67.99
56070;BME280;41944;52.078;-0.058;2023-04-25T07:51:15;101592.74;;;7.54;69.08
56070;BME280;41944;52.078;-0.058;2023-04-25T07:53:42;101592.78;;;7.62;69.80
56070;BME280;41944;52.078;-0.058;2023-04-25T07:56:09;101595.98;;;7.71;70.27
56070;BME280;41944;52.078;-0.058;2023-04-25T07:58:36;101596.41;;;7.93;69.58
56070;BME280;41944;52.078;-0.058;2023-04-25T08:01:04;101601.84;;;7.91;68.66
56070;BME280;41944;52.078;-0.058;2023-04-25T08:03:31;101595.71;;;7.95;66.48
56070;BME280;41944;52.078;-0.058;2023-04-25T08:05:57;101599.52;;;8.11;66.33
56070;BME280;41944;52.078;-0.058;2023-04-25T08:08:24;101601.49;;;7.91;67.40
56070;BME280;41944;52.078;-0.058;2023-04-25T08:10:52;101598.45;;;8.01;66.85
56070;BME280;41944;52.078;-0.058;2023-04-25T08:13:19;101599.81;;;8.23;65.93
56070;BME280;41944;52.078;-0.058;2023-04-25T08:15:46;101604.20;;;8.17;66.38
56070;BME280;41944;52.078;-0.058;2023-04-25T08:18:13;101600.20;;;8.14;66.99
56070;BME280;41944;52.078;-0.058;2023-04-25T08:20:40;101608.77;;;8.28;63.96
56070;BME280;41944;52.078;-0.058;2023-04-25T08:23:07;101612.29;;;8.26;64.41
56070;BME280;41944;52.078;-0.058;2023-04-25T08:25:34;101618.46;;;8.41;63.59
56070;BME280;41944;52.078;-0.058;2023-04-25T08:28:00;101618.86;;;8.55;63.23
56070;BME280;41944;52.078;-0.058;2023-04-25T08:30:27;101623.41;;;8.63;62.12
56070;BME280;41944;52.078;-0.058;2023-04-25T08:32:54;101626.62;;;8.70;61.62
56070;BME280;41944;52.078;-0.058;2023-04-25T08:35:21;101630.29;;;8.79;60.47
56070;BME280;41944;52.078;-0.058;2023-04-25T08:37:48;101633.53;;;8.86;60.89
56070;BME280;41944;52.078;-0.058;2023-04-25T08:40:15;101637.94;;;8.88;60.80
56070;BME280;41944;52.078;-0.058;2023-04-25T08:42:43;101642.79;;;8.89;59.90
56070;BME280;41944;52.078;-0.058;2023-04-25T08:45:10;101645.76;;;8.91;58.71
56070;BME280;41944;52.078;-0.058;2023-04-25T08:47:38;101644.82;;;8.92;58.77
56070;BME280;41944;52.078;-0.058;2023-04-25T08:50:06;101647.10;;;8.98;57.60
56070;BME280;41944;52.078;-0.058;2023-04-25T08:52:36;101649.82;;;8.99;55.93
56070;BME280;41944;52.078;-0.058;2023-04-25T08:55:05;101651.35;;;9.12;57.34
56070;BME280;41944;52.078;-0.058;2023-04-25T08:57:34;101656.34;;;8.91;57.34
56070;BME280;41944;52.078;-0.058;2023-04-25T09:00:02;101660.14;;;8.96;57.49
56070;BME280;41944;52.078;-0.058;2023-04-25T09:02:29;101646.86;;;9.18;58.37
56070;BME280;41944;52.078;-0.058;2023-04-25T09:04:56;101646.56;;;9.39;57.83
56070;BME280;41944;52.078;-0.058;2023-04-25T09:07:23;101646.46;;;9.39;56.30
56070;BME280;41944;52.078;-0.058;2023-04-25T09:09:50;101643.87;;;9.57;56.24
56070;BME280;41944;52.078;-0.058;2023-04-25T09:12:18;101651.27;;;9.52;56.19
56070;BME280;41944;52.078;-0.058;2023-04-25T09:15:04;101650.06;;;9.40;55.74
56070;BME280;41944;52.078;-0.058;2023-04-25T09:17:31;101649.39;;;9.29;56.92
56070;BME280;41944;52.078;-0.058;2023-04-25T09:20:06;101648.05;;;9.37;54.77
56070;BME280;41944;52.078;-0.058;2023-04-25T09:22:34;101641.20;;;9.44;55.25
56070;BME280;41944;52.078;-0.058;2023-04-25T09:25:03;101646.09;;;9.42;55.26
56070;BME280;41944;52.078;-0.058;2023-04-25T09:27:30;101652.38;;;9.38;55.04
56070;BME280;41944;52.078;-0.058;2023-04-25T09:29:58;101652.13;;;9.22;56.24
56070;BME280;41944;52.078;-0.058;2023-04-25T09:32:25;101655.52;;;9.38;56.70
56070;BME280;41944;52.078;-0.058;2023-04-25T09:34:53;101649.63;;;9.40;56.64
56070;BME280;41944;52.078;-0.058;2023-04-25T09:37:23;101650.47;;;9.42;54.27
56070;BME280;41944;52.078;-0.058;2023-04-25T09:39:52;101647.19;;;9.53;54.42
56070;BME280;41944;52.078;-0.058;2023-04-25T09:42:22;101647.84;;;9.71;53.19
56070;BME280;41944;52.078;-0.058;2023-04-25T09:44:51;101639.89;;;9.96;52.28
56070;BME280;41944;52.078;-0.058;2023-04-25T09:47:19;101648.46;;;10.16;51.56
56070;BME280;41944;52.078;-0.058;2023-04-25T09:49:46;101647.52;;;10.03;50.74
56070;BME280;41944;52.078;-0.058;2023-04-25T09:52:15;101647.95;;;9.87;51.74
56070;BME280;41944;52.078;-0.058;2023-04-25T09:54:42;101642.15;;;9.91;51.87
56070;BME280;41944;52.078;-0.058;2023-04-25T09:57:11;101633.69;;;9.97;52.18
56070;BME280;41944;52.078;-0.058;2023-04-25T09:59:43;101632.52;;;10.34;52.28
56070;BME280;41944;52.078;-0.058;2023-04-25T10:02:12;101631.48;;;10.54;49.52
56070;BME280;41944;52.078;-0.058;2023-04-25T10:04:41;101630.34;;;10.60;48.79
56070;BME280;41944;52.078;-0.058;2023-04-25T10:07:08;101635.57;;;10.71;48.03
56070;BME280;41944;52.078;-0.058;2023-04-25T10:09:38;101633.31;;;10.76;48.32
56070;BME280;41944;52.078;-0.058;2023-04-25T10:12:06;101633.63;;;10.50;47.38
56070;BME280;41944;52.078;-0.058;2023-04-25T10:14:33;101632.17;;;10.17;48.52
56070;BME280;41944;52.078;-0.058;2023-04-25T10:17:01;101641.26;;;10.56;50.08
56070;BME280;41944;52.078;-0.058;2023-04-25T10:19:29;101634.90;;;10.63;50.39
56070;BME280;41944;52.078;-0.058;2023-04-25T10:22:04;101633.68;;;10.60;49.50
56070;BME280;41944;52.078;-0.058;2023-04-25T10:24:32;101638.88;;;11.13;48.72
56070;BME280;41944;52.078;-0.058;2023-04-25T10:27:00;101637.76;;;11.03;47.56
56070;BME280;41944;52.078;-0.058;2023-04-25T10:29:28;101630.80;;;11.17;47.40
56070;BME280;41944;52.078;-0.058;2023-04-25T10:31:55;101623.95;;;11.48;47.17
56070;BME280;41944;52.078;-0.058;2023-04-25T10:34:24;101629.47;;;11.65;47.93
56070;BME280;41944;52.078;-0.058;2023-04-25T10:37:03;101633.69;;;11.40;46.22
56070;BME280;41944;52.078;-0.058;2023-04-25T10:39:32;101637.78;;;10.84;46.96
56070;BME280;41944;52.078;-0.058;2023-04-25T10:42:02;101635.89;;;10.71;49.11
56070;BME280;41944;52.078;-0.058;2023-04-25T10:44:30;101636.43;;;10.68;49.62
56070;BME280;41944;52.078;-0.058;2023-04-25T10:46:58;101632.30;;;10.97;49.82
56070;BME280;41944;52.078;-0.058;2023-04-25T10:49:30;101634.34;;;11.32;49.54
56070;BME280;41944;52.078;-0.058;2023-04-25T10:52:16;101638.25;;;11.62;48.51
56070;BME280;41944;52.078;-0.058;2023-04-25T10:54:48;101640.09;;;11.83;45.75
56070;BME280;41944;52.078;-0.058;2023-04-25T10:57:39;101635.88;;;11.71;45.62
56070;BME280;41944;52.078;-0.058;2023-04-25T11:00:08;101637.18;;;11.90;44.70
56070;BME280;41944;52.078;-0.058;2023-04-25T11:02:37;101636.23;;;12.10;43.46
56070;BME280;41944;52.078;-0.058;2023-04-25T11:05:06;101635.53;;;12.12;46.04
56070;BME280;41944;52.078;-0.058;2023-04-25T11:07:38;101633.28;;;11.82;45.06
56070;BME280;41944;52.078;-0.058;2023-04-25T11:10:10;101635.61;;;11.46;45.95
56070;BME280;41944;52.078;-0.058;2023-04-25T11:12:37;101636.58;;;11.39;45.24
56070;BME280;41944;52.078;-0.058;2023-04-25T11:15:06;101636.94;;;11.32;45.29
56070;BME280;41944;52.078;-0.058;2023-04-25T11:17:33;101637.38;;;11.43;46.33
56070;BME280;41944;52.078;-0.058;2023-04-25T11:20:00;101641.19;;;11.53;45.60
56070;BME280;41944;52.078;-0.058;2023-04-25T11:22:28;101639.33;;;11.39;46.04
56070;BME280;41944;52.078;-0.058;2023-04-25T11:24:55;101640.76;;;10.85;46.98
56070;BME280;41944;52.078;-0.058;2023-04-25T11:27:22;101643.34;;;10.90;46.04
56070;BME280;41944;52.078;-0.058;2023-04-25T11:29:49;101636.03;;;10.95;45.01
56070;BME280;41944;52.078;-0.058;2023-04-25T11:32:17;101634.51;;;10.86;44.86
56070;BME280;41944;52.078;-0.058;2023-04-25T11:34:44;101631.51;;;11.15;42.98
56070;BME280;41944;52.078;-0.058;2023-04-25T11:37:11;101631.33;;;11.33;44.39
56070;BME280;41944;52.078;-0.058;2023-04-25T11:39:43;101632.48;;;11.42;44.29
56070;BME280;41944;52.078;-0.058;2023-04-25T11:42:10;101631.32;;;11.42;44.83
56070;BME280;41944;52.078;-0.058;2023-04-25T11:44:38;101631.86;;;11.74;44.45
56070;BME280;41944;52.078;-0.058;2023-04-25T11:47:06;101630.30;;;12.12;43.50
56070;BME280;41944;52.078;-0.058;2023-04-25T11:49:33;101630.62;;;12.50;43.01
56070;BME280;41944;52.078;-0.058;2023-04-25T11:51:59;101624.60;;;12.71;42.92
56070;BME280;41944;52.078;-0.058;2023-04-25T11:54:26;101621.65;;;12.99;41.28
56070;BME280;41944;52.078;-0.058;2023-04-25T11:56:53;101621.65;;;13.02;42.45
56070;BME280;41944;52.078;-0.058;2023-04-25T11:59:24;101629.82;;;13.03;42.52
56070;BME280;41944;52.078;-0.058;2023-04-25T12:01:52;101635.65;;;12.53;43.23
56070;BME280;41944;52.078;-0.058;2023-04-25T12:04:21;101636.97;;;12.46;43.78
56070;BME280;41944;52.078;-0.058;2023-04-25T12:06:50;101638.46;;;12.35;44.61
56070;BME280;41944;52.078;-0.058;2023-04-25T12:09:18;101643.23;;;12.26;42.57
56070;BME280;41944;52.078;-0.058;2023-04-25T12:11:47;101640.88;;;12.20;41.76
56070;BME280;41944;52.078;-0.058;2023-04-25T12:14:21;101636.61;;;12.13;42.61
56070;BME280;41944;52.078;-0.058;2023-04-25T12:16:50;101637.08;;;12.48;42.22
56070;BME280;41944;52.078;-0.058;2023-04-25T12:19:18;101639.51;;;12.87;40.58
56070;BME280;41944;52.078;-0.058;2023-04-25T12:21:47;101637.20;;;13.21;39.45
56070;BME280;41944;52.078;-0.058;2023-04-25T12:24:16;101639.22;;;13.37;39.94
56070;BME280;41944;52.078;-0.058;2023-04-25T12:26:52;101641.29;;;13.42;40.55
56070;BME280;41944;52.078;-0.058;2023-04-25T12:29:21;101647.61;;;13.33;41.04
56070;BME280;41944;52.078;-0.058;2023-04-25T12:31:50;101654.16;;;12.98;41.62
56070;BME280;41944;52.078;-0.058;2023-04-25T12:34:17;101653.47;;;12.92;41.46
56070;BME280;41944;52.078;-0.058;2023-04-25T12:36:44;101654.73;;;12.79;42.82
56070;BME280;41944;52.078;-0.058;2023-04-25T12:39:15;101653.85;;;12.68;43.65
56070;BME280;41944;52.078;-0.058;2023-04-25T12:41:43;101654.69;;;12.47;43.52
56070;BME280;41944;52.078;-0.058;2023-04-25T12:44:10;101651.27;;;12.47;43.80
56070;BME280;41944;52.078;-0.058;2023-04-25T12:46:37;101650.80;;;12.53;43.94
56070;BME280;41944;52.078;-0.058;2023-04-25T12:49:05;101650.69;;;12.46;43.16